sensor_id;sensor_type;location;lat;lon;timestamp;P1;durP1;ratioP1;P2;durP2;ratioP2
10116;SDS011;5098;48.792;9.012;2023-07-24T00:00:09;27.10;;;22.10;;
10116;SDS011;5098;48.792;9.012;2023-07-24T00:02:36;12.90;;;10.47;;
10116;SDS011;5098;48.792;9.012;2023-07-24T00:05:02;14.70;;;8.90;;
10116;SDS011;5098;48.792;9.012;2023-07-24T00:07:28;11.30;;;9.27;;
10116;SDS011;5098;48.792;9.012;2023-07-24T00:09:54;11.60;;;9.77;;
10116;SDS011;5098;48.792;9.012;2023-07-24T00:12:20;19.63;;;10.03;;
10116;SDS011;5098;48.792;9.012;2023-07-24T00:14:46;12.30;;;9.27;;
10116;SDS011;5098;48.792;9.012;2023-07-24T00:17:12;11.33;;;9.33;;
10116;SDS011;5098;48.792;9.012;2023-07-24T00:19:38;12.37;;;10.10;;
10116;SDS011;5098;48.792;9.012;2023-07-24T00:22:04;13.50;;;9.90;;
10116;SDS011;5098;48.792;9.012;2023-07-24T00:24:31;11.03;;;8.80;;
10116;SDS011;5098;48.792;9.012;2023-07-24T00:26:57;14.27;;;9.33;;
10116;SDS011;5098;48.792;9.012;2023-07-24T00:29:23;11.27;;;9.67;;
10116;SDS011;5098;48.792;9.012;2023-07-24T00:31:49;10.50;;;9.23;;
10116;SDS011;5098;48.792;9.012;2023-07-24T00:34:15;12.40;;;8.80;;
10116;SDS011;5098;48.792;9.012;2023-07-24T00:36:41;11.17;;;9.50;;
10116;SDS011;5098;48.792;9.012;2023-07-24T00:39:07;13.80;;;9.20;;
10116;SDS011;5098;48.792;9.012;2023-07-24T00:41:33;12.70;;;9.67;;
10116;SDS011;5098;48.792;9.012;2023-07-24T00:43:59;10.63;;;9.00;;
10116;SDS011;5098;48.792;9.012;2023-07-24T00:46:25;13.10;;;9.20;;
10116;SDS011;5098;48.792;9.012;2023-07-24T00:48:51;13.03;;;9.83;;
10116;SDS011;5098;48.792;9.012;2023-07-24T00:51:19;11.23;;;9.53;;
10116;SDS011;5098;48.792;9.012;2023-07-24T00:53:45;11.07;;;8.50;;
10116;SDS011;5098;48.792;9.012;2023-07-24T00:56:12;11.50;;;10.00;;
10116;SDS011;5098;48.792;9.012;2023-07-24T00:58:38;9.90;;;8.27;;
10116;SDS011;5098;48.792;9.012;2023-07-24T01:01:05;10.37;;;9.13;;
10116;SDS011;5098;48.792;9.012;2023-07-24T01:03:34;13.67;;;9.80;;
10116;SDS011;5098;48.792;9.012;2023-07-24T01:06:01;14.53;;;10.50;;
10116;SDS011;5098;48.792;9.012;2023-07-24T01:08:27;14.47;;;9.70;;
10116;SDS011;5098;48.792;9.012;2023-07-24T01:10:54;13.37;;;9.57;;
10116;SDS011;5098;48.792;9.012;2023-07-24T01:13:24;13.77;;;10.53;;
10116;SDS011;5098;48.792;9.012;2023-07-24T01:16:02;14.80;;;10.57;;
10116;SDS011;5098;48.792;9.012;2023-07-24T01:18:30;13.70;;;9.53;;
10116;SDS011;5098;48.792;9.012;2023-07-24T01:20:56;11.30;;;8.70;;
10116;SDS011;5098;48.792;9.012;2023-07-24T01:25:56;14.23;;;10.13;;
10116;SDS011;5098;48.792;9.012;2023-07-24T01:28:23;13.20;;;9.77;;
10116;SDS011;5098;48.792;9.012;2023-07-24T01:30:49;12.27;;;9.90;;
10116;SDS011;5098;48.792;9.012;2023-07-24T01:33:16;12.00;;;9.00;;
10116;SDS011;5098;48.792;9.012;2023-07-24T01:35:42;11.50;;;10.30;;
10116;SDS011;5098;48.792;9.012;2023-07-24T01:38:13;15.67;;;9.70;;
10116;SDS011;5098;48.792;9.012;2023-07-24T01:40:42;12.33;;;9.93;;
10116;SDS011;5098;48.792;9.012;2023-07-24T01:43:08;10.63;;;8.73;;
10116;SDS011;5098;48.792;9.012;2023-07-24T01:45:34;12.67;;;9.60;;
10116;SDS011;5098;48.792;9.012;2023-07-24T01:48:01;12.30;;;8.97;;
10116;SDS011;5098;48.792;9.012;2023-07-24T01:50:27;11.10;;;9.00;;
10116;SDS011;5098;48.792;9.012;2023-07-24T01:52:53;10.43;;;8.90;;
10116;SDS011;5098;48.792;9.012;2023-07-24T01:55:19;12.47;;;9.50;;
10116;SDS011;5098;48.792;9.012;2023-07-24T01:57:45;11.73;;;9.73;;
10116;SDS011;5098;48.792;9.012;2023-07-24T02:00:11;11.20;;;9.20;;
10116;SDS011;5098;48.792;9.012;2023-07-24T02:02:38;14.00;;;10.00;;
10116;SDS011;5098;48.792;9.012;2023-07-24T02:05:04;9.70;;;8.70;;
10116;SDS011;5098;48.792;9.012;2023-07-24T02:07:30;9.97;;;8.40;;
10116;SDS011;5098;48.792;9.012;2023-07-24T02:09:56;12.30;;;9.07;;
10116;SDS011;5098;48.792;9.012;2023-07-24T02:12:22;12.33;;;8.80;;
10116;SDS011;5098;48.792;9.012;2023-07-24T02:14:48;10.80;;;9.40;;
10116;SDS011;5098;48.792;9.012;2023-07-24T02:17:16;11.30;;;9.40;;
10116;SDS011;5098;48.792;9.012;2023-07-24T02:19:42;9.73;;;8.13;;
10116;SDS011;5098;48.792;9.012;2023-07-24T02:22:08;11.43;;;9.20;;
10116;SDS011;5098;48.792;9.012;2023-07-24T02:24:34;9.60;;;8.17;;
10116;SDS011;5098;48.792;9.012;2023-07-24T02:27:00;14.40;;;9.23;;
10116;SDS011;5098;48.792;9.012;2023-07-24T02:29:26;11.00;;;8.87;;
10116;SDS011;5098;48.792;9.012;2023-07-24T02:31:53;10.83;;;8.77;;
10116;SDS011;5098;48.792;9.012;2023-07-24T02:34:19;10.20;;;8.73;;
10116;SDS011;5098;48.792;9.012;2023-07-24T02:36:49;10.20;;;8.87;;
10116;SDS011;5098;48.792;9.012;2023-07-24T02:39:15;10.10;;;8.30;;
10116;SDS011;5098;48.792;9.012;2023-07-24T02:41:42;11.97;;;8.23;;
10116;SDS011;5098;48.792;9.012;2023-07-24T02:44:08;10.27;;;8.83;;
10116;SDS011;5098;48.792;9.012;2023-07-24T02:46:34;11.50;;;9.07;;
10116;SDS011;5098;48.792;9.012;2023-07-24T02:49:00;9.83;;;8.10;;
10116;SDS011;5098;48.792;9.012;2023-07-24T02:51:26;9.57;;;7.93;;
10116;SDS011;5098;48.792;9.012;2023-07-24T02:53:53;8.83;;;7.90;;
10116;SDS011;5098;48.792;9.012;2023-07-24T02:56:20;12.80;;;9.17;;
10116;SDS011;5098;48.792;9.012;2023-07-24T02:58:46;14.93;;;8.50;;
10116;SDS011;5098;48.792;9.012;2023-07-24T03:01:12;9.70;;;8.53;;
10116;SDS011;5098;48.792;9.012;2023-07-24T03:03:39;10.20;;;8.40;;
10116;SDS011;5098;48.792;9.012;2023-07-24T03:06:05;9.70;;;8.70;;
10116;SDS011;5098;48.792;9.012;2023-07-24T03:08:31;10.70;;;8.97;;
10116;SDS011;5098;48.792;9.012;2023-07-24T03:10:58;10.90;;;9.37;;
10116;SDS011;5098;48.792;9.012;2023-07-24T03:13:24;11.00;;;9.40;;
10116;SDS011;5098;48.792;9.012;2023-07-24T03:15:53;10.27;;;9.10;;
10116;SDS011;5098;48.792;9.012;2023-07-24T03:18:19;12.17;;;8.90;;
10116;SDS011;5098;48.792;9.012;2023-07-24T03:20:46;12.50;;;9.20;;
10116;SDS011;5098;48.792;9.012;2023-07-24T03:23:12;12.47;;;9.57;;
10116;SDS011;5098;48.792;9.012;2023-07-24T03:25:38;12.73;;;9.27;;
10116;SDS011;5098;48.792;9.012;2023-07-24T03:28:04;10.40;;;8.40;;
10116;SDS011;5098;48.792;9.012;2023-07-24T03:30:30;9.50;;;8.50;;
10116;SDS011;5098;48.792;9.012;2023-07-24T03:32:56;11.13;;;8.47;;
10116;SDS011;5098;48.792;9.012;2023-07-24T03:35:23;11.53;;;8.37;;
10116;SDS011;5098;48.792;9.012;2023-07-24T03:37:49;11.00;;;8.80;;
10116;SDS011;5098;48.792;9.012;2023-07-24T03:40:15;11.07;;;8.63;;
10116;SDS011;5098;48.792;9.012;2023-07-24T03:42:41;11.17;;;8.60;;
10116;SDS011;5098;48.792;9.012;2023-07-24T03:45:07;10.50;;;9.40;;
10116;SDS011;5098;48.792;9.012;2023-07-24T03:47:33;12.60;;;10.00;;
10116;SDS011;5098;48.792;9.012;2023-07-24T03:49:59;11.43;;;9.80;;
10116;SDS011;5098;48.792;9.012;2023-07-24T03:52:26;12.67;;;9.00;;
10116;SDS011;5098;48.792;9.012;2023-07-24T03:54:52;11.20;;;9.13;;
10116;SDS011;5098;48.792;9.012;2023-07-24T03:57:18;10.40;;;8.90;;
10116;SDS011;5098;48.792;9.012;2023-07-24T03:59:44;11.70;;;9.20;;
10116;SDS011;5098;48.792;9.012;2023-07-24T04:02:10;10.70;;;8.33;;
10116;SDS011;5098;48.792;9.012;2023-07-24T04:04:36;11.63;;;8.83;;
10116;SDS011;5098;48.792;9.012;2023-07-24T04:07:03;9.67;;;8.13;;
10116;SDS011;5098;48.792;9.012;2023-07-24T04:09:29;11.47;;;9.33;;
10116;SDS011;5098;48.792;9.012;2023-07-24T04:11:55;9.73;;;8.63;;
10116;SDS011;5098;48.792;9.012;2023-07-24T04:14:21;10.50;;;9.23;;
10116;SDS011;5098;48.792;9.012;2023-07-24T04:16:47;11.37;;;9.30;;
10116;SDS011;5098;48.792;9.012;2023-07-24T04:19:13;11.00;;;9.40;;
10116;SDS011;5098;48.792;9.012;2023-07-24T04:21:39;10.67;;;9.53;;
10116;SDS011;5098;48.792;9.012;2023-07-24T04:24:05;11.23;;;9.83;;
10116;SDS011;5098;48.792;9.012;2023-07-24T04:26:31;9.50;;;8.50;;
10116;SDS011;5098;48.792;9.012;2023-07-24T04:28:58;10.70;;;8.80;;
10116;SDS011;5098;48.792;9.012;2023-07-24T04:31:24;11.57;;;8.90;;
10116;SDS011;5098;48.792;9.012;2023-07-24T04:33:50;9.47;;;8.43;;
10116;SDS011;5098;48.792;9.012;2023-07-24T04:36:16;9.20;;;7.53;;
10116;SDS011;5098;48.792;9.012;2023-07-24T04:38:42;10.83;;;8.43;;
10116;SDS011;5098;48.792;9.012;2023-07-24T04:41:08;9.17;;;8.10;;
10116;SDS011;5098;48.792;9.012;2023-07-24T04:43:34;13.70;;;9.00;;
10116;SDS011;5098;48.792;9.012;2023-07-24T04:46:00;10.70;;;8.70;;
10116;SDS011;5098;48.792;9.012;2023-07-24T04:48:26;10.80;;;8.60;;
10116;SDS011;5098;48.792;9.012;2023-07-24T04:50:53;10.63;;;8.60;;
10116;SDS011;5098;48.792;9.012;2023-07-24T04:53:19;10.23;;;9.10;;
10116;SDS011;5098;48.792;9.012;2023-07-24T04:55:46;10.60;;;8.97;;
10116;SDS011;5098;48.792;9.012;2023-07-24T04:58:12;11.50;;;8.20;;
10116;SDS011;5098;48.792;9.012;2023-07-24T05:00:38;10.50;;;9.30;;
10116;SDS011;5098;48.792;9.012;2023-07-24T05:03:04;11.63;;;8.50;;
10116;SDS011;5098;48.792;9.012;2023-07-24T05:05:31;9.77;;;7.80;;
10116;SDS011;5098;48.792;9.012;2023-07-24T05:07:57;13.50;;;9.57;;
10116;SDS011;5098;48.792;9.012;2023-07-24T05:10:23;9.97;;;8.90;;
10116;SDS011;5098;48.792;9.012;2023-07-24T05:12:50;10.90;;;9.13;;
10116;SDS011;5098;48.792;9.012;2023-07-24T05:15:16;12.43;;;10.00;;
10116;SDS011;5098;48.792;9.012;2023-07-24T05:17:42;10.80;;;8.57;;
10116;SDS011;5098;48.792;9.012;2023-07-24T05:20:09;10.07;;;8.53;;
10116;SDS011;5098;48.792;9.012;2023-07-24T05:22:35;9.67;;;8.67;;
10116;SDS011;5098;48.792;9.012;2023-07-24T05:25:01;11.57;;;9.70;;
10116;SDS011;5098;48.792;9.012;2023-07-24T05:27:27;10.30;;;8.70;;
10116;SDS011;5098;48.792;9.012;2023-07-24T05:29:54;8.70;;;7.70;;
10116;SDS011;5098;48.792;9.012;2023-07-24T05:32:20;10.30;;;8.10;;
10116;SDS011;5098;48.792;9.012;2023-07-24T05:34:46;11.97;;;9.27;;
10116;SDS011;5098;48.792;9.012;2023-07-24T05:37:12;10.07;;;9.07;;
10116;SDS011;5098;48.792;9.012;2023-07-24T05:39:38;12.07;;;9.90;;
10116;SDS011;5098;48.792;9.012;2023-07-24T05:42:04;12.07;;;9.77;;
10116;SDS011;5098;48.792;9.012;2023-07-24T05:44:31;10.30;;;8.40;;
10116;SDS011;5098;48.792;9.012;2023-07-24T05:46:58;10.30;;;9.20;;
10116;SDS011;5098;48.792;9.012;2023-07-24T05:49:24;9.60;;;8.60;;
10116;SDS011;5098;48.792;9.012;2023-07-24T05:51:51;14.30;;;9.07;;
10116;SDS011;5098;48.792;9.012;2023-07-24T05:54:19;11.30;;;7.83;;
10116;SDS011;5098;48.792;9.012;2023-07-24T05:56:45;10.60;;;9.27;;
10116;SDS011;5098;48.792;9.012;2023-07-24T05:59:11;11.47;;;8.83;;
10116;SDS011;5098;48.792;9.012;2023-07-24T06:01:37;11.20;;;9.40;;
10116;SDS011;5098;48.792;9.012;2023-07-24T06:04:03;11.33;;;8.70;;
10116;SDS011;5098;48.792;9.012;2023-07-24T06:06:30;11.50;;;8.70;;
10116;SDS011;5098;48.792;9.012;2023-07-24T06:08:56;10.67;;;7.97;;
10116;SDS011;5098;48.792;9.012;2023-07-24T06:11:22;9.07;;;7.30;;
10116;SDS011;5098;48.792;9.012;2023-07-24T06:13:48;10.57;;;9.10;;
10116;SDS011;5098;48.792;9.012;2023-07-24T06:16:15;11.63;;;8.50;;
10116;SDS011;5098;48.792;9.012;2023-07-24T06:18:41;10.50;;;8.43;;
10116;SDS011;5098;48.792;9.012;2023-07-24T06:21:07;11.63;;;8.97;;
10116;SDS011;5098;48.792;9.012;2023-07-24T06:23:33;10.03;;;8.53;;
10116;SDS011;5098;48.792;9.012;2023-07-24T06:25:59;10.20;;;8.23;;
10116;SDS011;5098;48.792;9.012;2023-07-24T06:28:25;10.40;;;8.57;;
10116;SDS011;5098;48.792;9.012;2023-07-24T06:30:52;12.20;;;8.27;;
10116;SDS011;5098;48.792;9.012;2023-07-24T06:33:19;13.37;;;8.70;;
10116;SDS011;5098;48.792;9.012;2023-07-24T06:35:46;10.03;;;8.30;;
10116;SDS011;5098;48.792;9.012;2023-07-24T06:38:12;11.47;;;8.90;;
10116;SDS011;5098;48.792;9.012;2023-07-24T06:40:38;11.43;;;10.23;;
10116;SDS011;5098;48.792;9.012;2023-07-24T06:43:04;11.60;;;9.20;;
10116;SDS011;5098;48.792;9.012;2023-07-24T06:45:30;11.73;;;9.60;;
10116;SDS011;5098;48.792;9.012;2023-07-24T06:47:56;12.77;;;8.80;;
10116;SDS011;5098;48.792;9.012;2023-07-24T06:50:22;11.53;;;8.50;;
10116;SDS011;5098;48.792;9.012;2023-07-24T06:52:48;10.93;;;9.83;;
10116;SDS011;5098;48.792;9.012;2023-07-24T06:55:16;10.50;;;8.90;;
10116;SDS011;5098;48.792;9.012;2023-07-24T06:57:42;12.83;;;9.13;;
10116;SDS011;5098;48.792;9.012;2023-07-24T07:00:08;14.80;;;10.83;;
10116;SDS011;5098;48.792;9.012;2023-07-24T07:02:36;14.73;;;9.17;;
10116;SDS011;5098;48.792;9.012;2023-07-24T07:05:03;19.20;;;9.67;;
10116;SDS011;5098;48.792;9.012;2023-07-24T07:07:29;11.17;;;9.30;;
10116;SDS011;5098;48.792;9.012;2023-07-24T07:09:55;12.10;;;8.77;;
10116;SDS011;5098;48.792;9.012;2023-07-24T07:12:21;14.00;;;8.93;;
10116;SDS011;5098;48.792;9.012;2023-07-24T07:14:47;11.77;;;10.13;;
10116;SDS011;5098;48.792;9.012;2023-07-24T07:17:13;10.83;;;9.73;;
10116;SDS011;5098;48.792;9.012;2023-07-24T07:19:39;12.33;;;9.57;;
10116;SDS011;5098;48.792;9.012;2023-07-24T07:22:05;15.50;;;9.57;;
10116;SDS011;5098;48.792;9.012;2023-07-24T07:24:31;10.00;;;8.83;;
10116;SDS011;5098;48.792;9.012;2023-07-24T07:26:57;11.13;;;8.33;;
10116;SDS011;5098;48.792;9.012;2023-07-24T07:29:23;12.63;;;8.67;;
10116;SDS011;5098;48.792;9.012;2023-07-24T07:31:49;13.57;;;9.70;;
10116;SDS011;5098;48.792;9.012;2023-07-24T07:34:15;13.17;;;9.77;;
10116;SDS011;5098;48.792;9.012;2023-07-24T07:36:42;10.33;;;8.20;;
10116;SDS011;5098;48.792;9.012;2023-07-24T07:39:08;12.73;;;8.83;;
10116;SDS011;5098;48.792;9.012;2023-07-24T07:41:34;12.70;;;9.37;;
10116;SDS011;5098;48.792;9.012;2023-07-24T07:44:00;10.93;;;6.87;;
10116;SDS011;5098;48.792;9.012;2023-07-24T07:46:26;10.50;;;8.20;;
10116;SDS011;5098;48.792;9.012;2023-07-24T07:48:52;16.90;;;8.97;;
10116;SDS011;5098;48.792;9.012;2023-07-24T07:51:18;11.60;;;9.73;;
10116;SDS011;5098;48.792;9.012;2023-07-24T07:53:44;11.83;;;8.50;;
10116;SDS011;5098;48.792;9.012;2023-07-24T07:56:11;12.10;;;9.43;;
10116;SDS011;5098;48.792;9.012;2023-07-24T07:58:37;9.30;;;8.30;;
10116;SDS011;5098;48.792;9.012;2023-07-24T08:01:04;11.87;;;8.50;;
10116;SDS011;5098;48.792;9.012;2023-07-24T08:03:30;13.07;;;10.40;;
10116;SDS011;5098;48.792;9.012;2023-07-24T08:05:56;12.93;;;9.70;;
10116;SDS011;5098;48.792;9.012;2023-07-24T08:08:23;13.00;;;9.17;;
10116;SDS011;5098;48.792;9.012;2023-07-24T08:10:49;13.20;;;9.07;;
10116;SDS011;5098;48.792;9.012;2023-07-24T08:13:15;11.90;;;9.30;;
10116;SDS011;5098;48.792;9.012;2023-07-24T08:15:41;10.67;;;9.03;;
10116;SDS011;5098;48.792;9.012;2023-07-24T08:18:07;18.83;;;9.30;;
10116;SDS011;5098;48.792;9.012;2023-07-24T08:20:36;12.20;;;9.10;;
10116;SDS011;5098;48.792;9.012;2023-07-24T08:23:03;12.00;;;9.67;;
10116;SDS011;5098;48.792;9.012;2023-07-24T08:25:30;10.27;;;7.87;;
10116;SDS011;5098;48.792;9.012;2023-07-24T08:27:56;14.47;;;9.97;;
10116;SDS011;5098;48.792;9.012;2023-07-24T08:30:22;11.87;;;9.33;;
10116;SDS011;5098;48.792;9.012;2023-07-24T08:32:48;13.80;;;10.07;;
10116;SDS011;5098;48.792;9.012;2023-07-24T08:35:16;11.47;;;8.53;;
10116;SDS011;5098;48.792;9.012;2023-07-24T08:37:42;11.67;;;9.50;;
10116;SDS011;5098;48.792;9.012;2023-07-24T08:40:09;15.87;;;9.80;;
10116;SDS011;5098;48.792;9.012;2023-07-24T08:42:37;14.60;;;10.13;;
10116;SDS011;5098;48.792;9.012;2023-07-24T08:45:05;12.60;;;9.67;;
10116;SDS011;5098;48.792;9.012;2023-07-24T08:47:31;13.93;;;9.67;;
10116;SDS011;5098;48.792;9.012;2023-07-24T08:49:57;16.43;;;11.10;;
10116;SDS011;5098;48.792;9.012;2023-07-24T08:52:24;14.97;;;10.47;;
10116;SDS011;5098;48.792;9.012;2023-07-24T08:54:50;14.47;;;11.30;;
10116;SDS011;5098;48.792;9.012;2023-07-24T08:57:17;13.13;;;9.50;;
10116;SDS011;5098;48.792;9.012;2023-07-24T08:59:43;14.17;;;9.40;;
10116;SDS011;5098;48.792;9.012;2023-07-24T09:02:09;12.17;;;8.93;;
10116;SDS011;5098;48.792;9.012;2023-07-24T09:04:35;10.37;;;8.70;;
10116;SDS011;5098;48.792;9.012;2023-07-24T09:07:01;11.97;;;9.10;;
10116;SDS011;5098;48.792;9.012;2023-07-24T09:09:30;10.97;;;8.87;;
10116;SDS011;5098;48.792;9.012;2023-07-24T09:11:56;10.27;;;7.13;;
10116;SDS011;5098;48.792;9.012;2023-07-24T09:14:25;10.23;;;7.10;;
10116;SDS011;5098;48.792;9.012;2023-07-24T09:17:07;8.50;;;6.90;;
10116;SDS011;5098;48.792;9.012;2023-07-24T09:19:33;7.00;;;5.23;;
10116;SDS011;5098;48.792;9.012;2023-07-24T09:22:10;5.50;;;4.87;;
10116;SDS011;5098;48.792;9.012;2023-07-24T09:24:36;8.10;;;6.30;;
10116;SDS011;5098;48.792;9.012;2023-07-24T09:27:04;6.67;;;5.97;;
10116;SDS011;5098;48.792;9.012;2023-07-24T09:29:31;6.20;;;5.60;;
10116;SDS011;5098;48.792;9.012;2023-07-24T09:31:58;8.43;;;6.53;;
10116;SDS011;5098;48.792;9.012;2023-07-24T09:34:24;6.67;;;5.97;;
10116;SDS011;5098;48.792;9.012;2023-07-24T09:36:53;10.13;;;6.30;;
10116;SDS011;5098;48.792;9.012;2023-07-24T09:39:23;7.50;;;5.80;;
10116;SDS011;5098;48.792;9.012;2023-07-24T09:41:49;8.80;;;6.07;;
10116;SDS011;5098;48.792;9.012;2023-07-24T09:44:15;7.73;;;6.00;;
10116;SDS011;5098;48.792;9.012;2023-07-24T09:46:42;7.23;;;6.53;;
10116;SDS011;5098;48.792;9.012;2023-07-24T09:49:09;6.57;;;5.90;;
10116;SDS011;5098;48.792;9.012;2023-07-24T09:51:35;8.20;;;5.70;;
10116;SDS011;5098;48.792;9.012;2023-07-24T09:54:12;8.53;;;6.87;;
10116;SDS011;5098;48.792;9.012;2023-07-24T09:56:41;7.03;;;6.30;;
10116;SDS011;5098;48.792;9.012;2023-07-24T09:59:07;9.23;;;6.60;;
10116;SDS011;5098;48.792;9.012;2023-07-24T10:01:35;9.83;;;5.90;;
10116;SDS011;5098;48.792;9.012;2023-07-24T10:04:03;11.23;;;6.43;;
10116;SDS011;5098;48.792;9.012;2023-07-24T10:06:30;6.83;;;6.23;;
10116;SDS011;5098;48.792;9.012;2023-07-24T10:08:57;7.60;;;6.73;;
10116;SDS011;5098;48.792;9.012;2023-07-24T10:11:24;7.70;;;6.70;;
10116;SDS011;5098;48.792;9.012;2023-07-24T10:13:50;6.07;;;5.27;;
10116;SDS011;5098;48.792;9.012;2023-07-24T10:16:17;8.27;;;7.33;;
10116;SDS011;5098;48.792;9.012;2023-07-24T10:18:43;6.83;;;5.60;;
10116;SDS011;5098;48.792;9.012;2023-07-24T10:21:10;8.83;;;6.57;;
10116;SDS011;5098;48.792;9.012;2023-07-24T10:23:37;8.93;;;7.03;;
10116;SDS011;5098;48.792;9.012;2023-07-24T10:26:04;8.50;;;6.53;;
10116;SDS011;5098;48.792;9.012;2023-07-24T10:28:30;9.03;;;6.40;;
10116;SDS011;5098;48.792;9.012;2023-07-24T10:30:57;8.57;;;7.00;;
10116;SDS011;5098;48.792;9.012;2023-07-24T10:33:23;7.20;;;6.30;;
10116;SDS011;5098;48.792;9.012;2023-07-24T10:35:53;10.53;;;7.60;;
10116;SDS011;5098;48.792;9.012;2023-07-24T10:38:20;8.50;;;6.50;;
10116;SDS011;5098;48.792;9.012;2023-07-24T10:41:01;10.50;;;7.03;;
10116;SDS011;5098;48.792;9.012;2023-07-24T10:43:27;9.50;;;6.63;;
10116;SDS011;5098;48.792;9.012;2023-07-24T10:45:53;11.93;;;7.97;;
10116;SDS011;5098;48.792;9.012;2023-07-24T10:48:21;12.50;;;8.63;;
10116;SDS011;5098;48.792;9.012;2023-07-24T10:50:48;9.80;;;7.30;;
10116;SDS011;5098;48.792;9.012;2023-07-24T10:53:19;8.60;;;6.57;;
10116;SDS011;5098;48.792;9.012;2023-07-24T10:55:45;9.33;;;7.57;;
10116;SDS011;5098;48.792;9.012;2023-07-24T10:58:15;8.07;;;7.27;;
10116;SDS011;5098;48.792;9.012;2023-07-24T11:00:42;10.60;;;8.03;;
10116;SDS011;5098;48.792;9.012;2023-07-24T11:03:12;13.40;;;9.27;;
10116;SDS011;5098;48.792;9.012;2023-07-24T11:05:39;12.00;;;8.93;;
10116;SDS011;5098;48.792;9.012;2023-07-24T11:08:10;10.03;;;8.93;;
10116;SDS011;5098;48.792;9.012;2023-07-24T11:10:43;9.30;;;7.50;;
10116;SDS011;5098;48.792;9.012;2023-07-24T11:13:10;9.23;;;7.73;;
10116;SDS011;5098;48.792;9.012;2023-07-24T11:15:36;12.07;;;8.70;;
10116;SDS011;5098;48.792;9.012;2023-07-24T11:18:02;10.47;;;7.70;;
10116;SDS011;5098;48.792;9.012;2023-07-24T11:20:28;8.50;;;7.47;;
10116;SDS011;5098;48.792;9.012;2023-07-24T11:22:57;9.57;;;7.47;;
10116;SDS011;5098;48.792;9.012;2023-07-24T11:25:23;9.63;;;8.63;;
10116;SDS011;5098;48.792;9.012;2023-07-24T11:27:49;9.00;;;7.57;;
10116;SDS011;5098;48.792;9.012;2023-07-24T11:30:19;10.80;;;8.73;;
10116;SDS011;5098;48.792;9.012;2023-07-24T11:32:45;9.53;;;7.47;;
10116;SDS011;5098;48.792;9.012;2023-07-24T11:35:12;12.23;;;8.03;;
10116;SDS011;5098;48.792;9.012;2023-07-24T11:37:38;8.47;;;7.13;;
10116;SDS011;5098;48.792;9.012;2023-07-24T11:40:05;8.87;;;7.97;;
10116;SDS011;5098;48.792;9.012;2023-07-24T11:42:38;11.80;;;7.20;;
10116;SDS011;5098;48.792;9.012;2023-07-24T11:45:04;10.37;;;6.53;;
10116;SDS011;5098;48.792;9.012;2023-07-24T11:47:31;7.67;;;6.57;;
10116;SDS011;5098;48.792;9.012;2023-07-24T11:50:00;7.30;;;6.23;;
10116;SDS011;5098;48.792;9.012;2023-07-24T11:52:36;7.73;;;6.93;;
10116;SDS011;5098;48.792;9.012;2023-07-24T11:55:04;8.63;;;6.30;;
10116;SDS011;5098;48.792;9.012;2023-07-24T11:57:30;10.00;;;7.80;;
10116;SDS011;5098;48.792;9.012;2023-07-24T11:59:56;9.40;;;6.50;;
10116;SDS011;5098;48.792;9.012;2023-07-24T12:02:26;8.20;;;7.03;;
10116;SDS011;5098;48.792;9.012;2023-07-24T12:04:55;7.57;;;5.97;;
10116;SDS011;5098;48.792;9.012;2023-07-24T12:07:23;7.03;;;6.33;;
10116;SDS011;5098;48.792;9.012;2023-07-24T12:09:50;7.37;;;6.60;;
10116;SDS011;5098;48.792;9.012;2023-07-24T12:12:17;7.90;;;6.33;;
10116;SDS011;5098;48.792;9.012;2023-07-24T12:14:43;8.40;;;7.20;;
10116;SDS011;5098;48.792;9.012;2023-07-24T12:17:09;8.10;;;7.27;;
10116;SDS011;5098;48.792;9.012;2023-07-24T12:19:39;7.33;;;5.77;;
10116;SDS011;5098;48.792;9.012;2023-07-24T12:22:05;7.60;;;6.47;;
10116;SDS011;5098;48.792;9.012;2023-07-24T12:24:32;8.53;;;7.33;;
10116;SDS011;5098;48.792;9.012;2023-07-24T12:26:58;9.03;;;7.43;;
10116;SDS011;5098;48.792;9.012;2023-07-24T12:29:24;6.93;;;5.60;;
10116;SDS011;5098;48.792;9.012;2023-07-24T12:31:50;7.20;;;6.37;;
10116;SDS011;5098;48.792;9.012;2023-07-24T12:34:17;8.40;;;6.20;;
10116;SDS011;5098;48.792;9.012;2023-07-24T12:36:43;7.37;;;6.67;;
10116;SDS011;5098;48.792;9.012;2023-07-24T12:39:09;7.70;;;6.27;;
10116;SDS011;5098;48.792;9.012;2023-07-24T12:41:35;7.23;;;6.53;;
10116;SDS011;5098;48.792;9.012;2023-07-24T12:44:01;8.60;;;6.43;;
10116;SDS011;5098;48.792;9.012;2023-07-24T12:46:27;8.47;;;6.93;;
10116;SDS011;5098;48.792;9.012;2023-07-24T12:48:53;8.20;;;7.40;;
10116;SDS011;5098;48.792;9.012;2023-07-24T12:51:19;7.37;;;6.57;;
10116;SDS011;5098;48.792;9.012;2023-07-24T12:53:45;8.73;;;5.53;;
10116;SDS011;5098;48.792;9.012;2023-07-24T12:56:11;7.23;;;6.53;;
10116;SDS011;5098;48.792;9.012;2023-07-24T12:58:37;6.70;;;6.00;;
10116;SDS011;5098;48.792;9.012;2023-07-24T13:01:03;7.93;;;6.60;;
10116;SDS011;5098;48.792;9.012;2023-07-24T13:03:31;7.70;;;6.90;;
10116;SDS011;5098;48.792;9.012;2023-07-24T13:05:57;8.10;;;6.23;;
10116;SDS011;5098;48.792;9.012;2023-07-24T13:08:24;6.60;;;5.87;;
10116;SDS011;5098;48.792;9.012;2023-07-24T13:10:50;6.77;;;6.03;;
10116;SDS011;5098;48.792;9.012;2023-07-24T13:13:16;8.07;;;6.37;;
10116;SDS011;5098;48.792;9.012;2023-07-24T13:15:43;6.73;;;6.03;;
10116;SDS011;5098;48.792;9.012;2023-07-24T13:18:09;6.73;;;5.70;;
10116;SDS011;5098;48.792;9.012;2023-07-24T13:20:39;6.70;;;6.00;;
10116;SDS011;5098;48.792;9.012;2023-07-24T13:23:05;6.77;;;6.00;;
10116;SDS011;5098;48.792;9.012;2023-07-24T13:25:31;6.50;;;5.83;;
10116;SDS011;5098;48.792;9.012;2023-07-24T13:27:57;7.90;;;6.37;;
10116;SDS011;5098;48.792;9.012;2023-07-24T13:30:24;7.50;;;6.10;;
10116;SDS011;5098;48.792;9.012;2023-07-24T13:32:50;7.30;;;6.20;;
10116;SDS011;5098;48.792;9.012;2023-07-24T13:35:16;7.60;;;6.40;;
10116;SDS011;5098;48.792;9.012;2023-07-24T13:37:42;6.60;;;5.67;;
10116;SDS011;5098;48.792;9.012;2023-07-24T13:40:08;7.23;;;5.90;;
10116;SDS011;5098;48.792;9.012;2023-07-24T13:42:34;7.00;;;6.30;;
10116;SDS011;5098;48.792;9.012;2023-07-24T13:45:00;6.67;;;5.97;;
10116;SDS011;5098;48.792;9.012;2023-07-24T13:47:26;5.73;;;5.20;;
10116;SDS011;5098;48.792;9.012;2023-07-24T13:49:52;5.60;;;5.00;;
10116;SDS011;5098;48.792;9.012;2023-07-24T13:52:18;6.73;;;5.53;;
10116;SDS011;5098;48.792;9.012;2023-07-24T13:54:45;6.17;;;5.57;;
10116;SDS011;5098;48.792;9.012;2023-07-24T13:57:12;6.83;;;5.93;;
10116;SDS011;5098;48.792;9.012;2023-07-24T13:59:38;6.10;;;5.50;;
10116;SDS011;5098;48.792;9.012;2023-07-24T14:02:05;7.40;;;5.77;;
10116;SDS011;5098;48.792;9.012;2023-07-24T14:04:31;5.83;;;5.23;;
10116;SDS011;5098;48.792;9.012;2023-07-24T14:06:57;5.90;;;5.33;;
10116;SDS011;5098;48.792;9.012;2023-07-24T14:09:24;5.40;;;4.83;;
10116;SDS011;5098;48.792;9.012;2023-07-24T14:11:50;4.50;;;3.97;;
10116;SDS011;5098;48.792;9.012;2023-07-24T14:14:17;6.13;;;5.50;;
10116;SDS011;5098;48.792;9.012;2023-07-24T14:16:44;6.63;;;5.47;;
10116;SDS011;5098;48.792;9.012;2023-07-24T14:19:10;6.23;;;5.00;;
10116;SDS011;5098;48.792;9.012;2023-07-24T14:21:36;6.17;;;5.67;;
10116;SDS011;5098;48.792;9.012;2023-07-24T14:24:02;6.90;;;5.10;;
10116;SDS011;5098;48.792;9.012;2023-07-24T14:26:28;5.17;;;4.67;;
10116;SDS011;5098;48.792;9.012;2023-07-24T14:28:54;5.30;;;4.80;;
10116;SDS011;5098;48.792;9.012;2023-07-24T14:31:20;5.87;;;4.90;;
10116;SDS011;5098;48.792;9.012;2023-07-24T14:33:46;5.97;;;4.70;;
10116;SDS011;5098;48.792;9.012;2023-07-24T14:36:12;5.67;;;5.00;;
10116;SDS011;5098;48.792;9.012;2023-07-24T14:38:38;5.60;;;4.50;;
10116;SDS011;5098;48.792;9.012;2023-07-24T14:41:04;5.20;;;4.70;;
10116;SDS011;5098;48.792;9.012;2023-07-24T14:43:31;5.60;;;4.93;;
10116;SDS011;5098;48.792;9.012;2023-07-24T14:45:57;5.33;;;4.50;;
10116;SDS011;5098;48.792;9.012;2023-07-24T14:48:23;6.67;;;5.30;;
10116;SDS011;5098;48.792;9.012;2023-07-24T14:50:49;5.30;;;4.80;;